Madison, MN

2:49 PM CDT on March 27, 2015 (GMT -0500)
Canby | | Change Station
CLOSE
Current Station
Airport
Location: Canby,
Elevation: 1194 ft
Nearby Weather Stations

Elev 1194 ft 44.73 °N, 96.26 °W | Updated 15 minutes ago

Clear
Clear
36 °F
Feels Like 32 °F
N
6
Wind Variable Wind from South

Today
High -- | Low -- °F
--% Chance of Precip.
Yesterday
High -- | Low -- °F
Precip. -- in
7:15 AM 7:45 PM
First Quarter, 55% visible
Pressure 30.15 in
Visibility 10.0 miles
Clouds Mostly Cloudy 10000 ft
Mostly Cloudy 12000 ft
Windchill 32 °F
Dew Point 5 °F
Humidity 27%
Rainfall 0.00 in
Snow Depth Not available.
UV 4 out of 12
Pollen 2.20 out of 12
Air Quality Not available.
Flu Activity Not available.
METAR KCNB 271934Z AUTO 17005KT 10SM BKN100 BKN120 02/M15 A3015 RMK AO2 T00241152

More Conditions Fewer Conditions

Pressure 30.15 in
Visibility 10.0 miles
Clouds Mostly Cloudy 10000 ft
Mostly Cloudy 12000 ft
Windchill 32 °F
Dew Point 5 °F
Humidity 27%
Rainfall 0.00 in
Snow Depth Not available.
UV 4 out of 12
Pollen 2.20 out of 12
Air Quality Not available.
Flu Activity Not available.
METAR KCNB 271934Z AUTO 17005KT 10SM BKN100 BKN120 02/M15 A3015 RMK AO2 T00241152

More Conditions Fewer Conditions

10-Day Weather Forecast

Almanac

Astronomy

Mar. 27, 2015 Rise Set
Actual Time
Civil Twilight
Nautical Twilight
Astronomical Twilight
Moon
Length of Visible Light
Length of Day
Tomorrow will be .
, % of the Moon is Illuminated

Today's Extremes

State Highs State Lows

Community

WunderPhotos

Upload Photos

1,808,799 photos uploaded!

WunderBlogs® & News

Nearby

Air Quality

  Air Quality AQ Index Pollutant
Not available.

Snow Depth

Station Depth Elevation

Earthquake Activity

City Distance Mag. Time & Date
Minimum magnitude displayed is 2.5.

Coastal Water Temperatures

Place Temperature

Stations

Nearby Weather Stations

Station Location Temp. Windchill Dew Point Humidity Wind Precip. Elev Updated Type